ROMMA est une association bénévole à but non lucratif. Votre soutien est indispensable : ADHERER à ROMMA ou FAIRE un DON

Taninges - (74, Haute-Savoie)

Vallée du Giffre (635 m)   Longitude: 06° 35' 38" E   Latitude: 46° 06' 21" N Station romma n°98
 

Détail journalier du     <<     >>

Température Humidité Pression Vent Dir Rafale Dir. rafale Ensol.
Heure (°C) (%) (hPa) (km/h) (km/h) (min)
01:00 15.98510191ENE5ENE0
02:00 15.98610191N3N0
03:00 15.38710192ENE6ENE0
04:00 14.491101903NE0
05:00 13.993101903NE0
06:00 13.294101902NE0
07:00 13.195101903NE0
08:00 14.39610191NE5NO20
09:00 17.88710192O6O60
10:00 19.68110192O6SO60
11:00 20.67910185OSO16OSO60
12:00 21.97710189OSO18OSO60
13:00 23.27410179SO19O60
14:00 24.471101710SO23OSO60
15:00 25.466101610OSO21SO60
16:00 26.153101610OSO19OSO60
17:00 26.75410169O19SO60
18:00 26.34910168O19OSO60
19:00 24.15910165OSO15ENE60
20:00 20.96210175NE13NE15
21:00 18.08210172ENE10NE0
22:00 15.789101703ENE0
23:00 13.993101803ENE0
minuit 13.194101805ESE0

Graphique du 24-08-2019

 

Serveur OMMA